sensor_id;sensor_type;location;lat;lon;timestamp;P1;durP1;ratioP1;P2;durP2;ratioP2
3939;SDS011;1984;48.312;9.244;2023-09-08T00:00:50;6.70;;;5.40;;
3939;SDS011;1984;48.312;9.244;2023-09-08T00:03:16;7.03;;;5.00;;
3939;SDS011;1984;48.312;9.244;2023-09-08T00:05:41;8.90;;;4.73;;
3939;SDS011;1984;48.312;9.244;2023-09-08T00:08:07;6.00;;;4.90;;
3939;SDS011;1984;48.312;9.244;2023-09-08T00:10:32;5.50;;;4.40;;
3939;SDS011;1984;48.312;9.244;2023-09-08T00:12:58;5.70;;;5.10;;
3939;SDS011;1984;48.312;9.244;2023-09-08T00:15:23;7.87;;;4.50;;
3939;SDS011;1984;48.312;9.244;2023-09-08T00:17:49;6.00;;;5.10;;
3939;SDS011;1984;48.312;9.244;2023-09-08T00:20:14;6.27;;;5.43;;
3939;SDS011;1984;48.312;9.244;2023-09-08T00:22:40;5.20;;;4.70;;
3939;SDS011;1984;48.312;9.244;2023-09-08T00:25:06;5.23;;;4.73;;
3939;SDS011;1984;48.312;9.244;2023-09-08T00:27:31;6.43;;;4.17;;
3939;SDS011;1984;48.312;9.244;2023-09-08T00:29:57;9.63;;;4.87;;
3939;SDS011;1984;48.312;9.244;2023-09-08T00:32:23;7.70;;;5.80;;
3939;SDS011;1984;48.312;9.244;2023-09-08T00:34:49;5.67;;;4.73;;
3939;SDS011;1984;48.312;9.244;2023-09-08T00:37:14;4.70;;;4.30;;
3939;SDS011;1984;48.312;9.244;2023-09-08T00:39:40;4.63;;;4.23;;
3939;SDS011;1984;48.312;9.244;2023-09-08T00:42:05;5.23;;;4.53;;
3939;SDS011;1984;48.312;9.244;2023-09-08T00:44:32;10.00;;;4.27;;
3939;SDS011;1984;48.312;9.244;2023-09-08T00:46:57;5.70;;;4.30;;
3939;SDS011;1984;48.312;9.244;2023-09-08T00:49:23;7.63;;;4.30;;
3939;SDS011;1984;48.312;9.244;2023-09-08T00:51:49;7.17;;;4.43;;
3939;SDS011;1984;48.312;9.244;2023-09-08T00:54:15;5.20;;;4.40;;
3939;SDS011;1984;48.312;9.244;2023-09-08T00:56:41;6.03;;;5.10;;
3939;SDS011;1984;48.312;9.244;2023-09-08T00:59:07;4.13;;;3.73;;
3939;SDS011;1984;48.312;9.244;2023-09-08T01:01:34;9.73;;;4.53;;
3939;SDS011;1984;48.312;9.244;2023-09-08T01:04:00;4.77;;;4.27;;
3939;SDS011;1984;48.312;9.244;2023-09-08T01:06:26;6.87;;;4.50;;
3939;SDS011;1984;48.312;9.244;2023-09-08T01:08:52;10.77;;;4.30;;
3939;SDS011;1984;48.312;9.244;2023-09-08T01:11:19;4.63;;;4.20;;
3939;SDS011;1984;48.312;9.244;2023-09-08T01:13:45;6.77;;;4.37;;
3939;SDS011;1984;48.312;9.244;2023-09-08T01:16:10;6.27;;;5.10;;
3939;SDS011;1984;48.312;9.244;2023-09-08T01:18:36;4.53;;;4.13;;
3939;SDS011;1984;48.312;9.244;2023-09-08T01:24:05;11.13;;;4.73;;
3939;SDS011;1984;48.312;9.244;2023-09-08T01:26:44;4.73;;;4.33;;
3939;SDS011;1984;48.312;9.244;2023-09-08T01:29:10;7.90;;;4.00;;
3939;SDS011;1984;48.312;9.244;2023-09-08T01:31:37;4.53;;;4.13;;
3939;SDS011;1984;48.312;9.244;2023-09-08T01:34:03;6.33;;;4.43;;
3939;SDS011;1984;48.312;9.244;2023-09-08T01:36:32;5.60;;;3.40;;
3939;SDS011;1984;48.312;9.244;2023-09-08T01:38:58;4.47;;;4.07;;
3939;SDS011;1984;48.312;9.244;2023-09-08T01:41:25;4.07;;;3.67;;
3939;SDS011;1984;48.312;9.244;2023-09-08T01:43:50;4.43;;;4.03;;
3939;SDS011;1984;48.312;9.244;2023-09-08T01:46:16;5.03;;;4.53;;
3939;SDS011;1984;48.312;9.244;2023-09-08T01:48:41;7.87;;;3.90;;
3939;SDS011;1984;48.312;9.244;2023-09-08T01:51:07;4.83;;;4.20;;
3939;SDS011;1984;48.312;9.244;2023-09-08T01:53:32;4.77;;;4.37;;
3939;SDS011;1984;48.312;9.244;2023-09-08T01:55:58;5.07;;;4.33;;
3939;SDS011;1984;48.312;9.244;2023-09-08T01:58:24;13.67;;;5.00;;
3939;SDS011;1984;48.312;9.244;2023-09-08T02:00:50;5.37;;;4.17;;
3939;SDS011;1984;48.312;9.244;2023-09-08T02:03:18;5.87;;;4.60;;
3939;SDS011;1984;48.312;9.244;2023-09-08T02:05:44;4.70;;;4.30;;
3939;SDS011;1984;48.312;9.244;2023-09-08T02:08:10;4.70;;;4.30;;
3939;SDS011;1984;48.312;9.244;2023-09-08T02:10:38;4.00;;;3.60;;
3939;SDS011;1984;48.312;9.244;2023-09-08T02:13:04;4.60;;;4.20;;
3939;SDS011;1984;48.312;9.244;2023-09-08T02:15:30;4.60;;;4.20;;
3939;SDS011;1984;48.312;9.244;2023-09-08T02:17:55;4.47;;;4.07;;
3939;SDS011;1984;48.312;9.244;2023-09-08T02:20:21;7.77;;;4.60;;
3939;SDS011;1984;48.312;9.244;2023-09-08T02:22:46;4.40;;;4.00;;
3939;SDS011;1984;48.312;9.244;2023-09-08T02:25:15;4.70;;;4.20;;
3939;SDS011;1984;48.312;9.244;2023-09-08T02:27:40;8.77;;;4.20;;
3939;SDS011;1984;48.312;9.244;2023-09-08T02:30:06;5.27;;;4.40;;
3939;SDS011;1984;48.312;9.244;2023-09-08T02:32:32;5.07;;;4.57;;
3939;SDS011;1984;48.312;9.244;2023-09-08T02:34:57;4.97;;;4.17;;
3939;SDS011;1984;48.312;9.244;2023-09-08T02:37:23;4.57;;;4.03;;
3939;SDS011;1984;48.312;9.244;2023-09-08T02:39:48;5.80;;;4.23;;
3939;SDS011;1984;48.312;9.244;2023-09-08T02:42:14;5.20;;;3.77;;
3939;SDS011;1984;48.312;9.244;2023-09-08T02:44:39;6.90;;;4.30;;
3939;SDS011;1984;48.312;9.244;2023-09-08T02:47:05;7.00;;;4.90;;
3939;SDS011;1984;48.312;9.244;2023-09-08T02:49:31;10.17;;;4.67;;
3939;SDS011;1984;48.312;9.244;2023-09-08T02:51:57;4.77;;;4.37;;
3939;SDS011;1984;48.312;9.244;2023-09-08T02:54:22;9.43;;;4.33;;
3939;SDS011;1984;48.312;9.244;2023-09-08T02:56:48;4.00;;;3.70;;
3939;SDS011;1984;48.312;9.244;2023-09-08T02:59:13;4.80;;;4.33;;
3939;SDS011;1984;48.312;9.244;2023-09-08T03:01:39;4.90;;;4.40;;
3939;SDS011;1984;48.312;9.244;2023-09-08T03:04:05;5.77;;;4.40;;
3939;SDS011;1984;48.312;9.244;2023-09-08T03:06:31;5.23;;;4.73;;
3939;SDS011;1984;48.312;9.244;2023-09-08T03:08:58;4.20;;;3.80;;
3939;SDS011;1984;48.312;9.244;2023-09-08T03:11:24;4.77;;;4.27;;
3939;SDS011;1984;48.312;9.244;2023-09-08T03:13:49;4.70;;;4.30;;
3939;SDS011;1984;48.312;9.244;2023-09-08T03:16:15;4.37;;;3.97;;
3939;SDS011;1984;48.312;9.244;2023-09-08T03:18:41;5.00;;;3.67;;
3939;SDS011;1984;48.312;9.244;2023-09-08T03:21:06;4.17;;;3.77;;
3939;SDS011;1984;48.312;9.244;2023-09-08T03:23:36;5.30;;;4.20;;
3939;SDS011;1984;48.312;9.244;2023-09-08T03:26:06;4.67;;;4.27;;
3939;SDS011;1984;48.312;9.244;2023-09-08T03:28:32;7.23;;;5.00;;
3939;SDS011;1984;48.312;9.244;2023-09-08T03:30:59;6.07;;;4.83;;
3939;SDS011;1984;48.312;9.244;2023-09-08T03:33:25;4.37;;;3.93;;
3939;SDS011;1984;48.312;9.244;2023-09-08T03:35:50;4.40;;;3.80;;
3939;SDS011;1984;48.312;9.244;2023-09-08T03:38:16;4.50;;;3.97;;
3939;SDS011;1984;48.312;9.244;2023-09-08T03:40:41;4.30;;;3.90;;
3939;SDS011;1984;48.312;9.244;2023-09-08T03:43:08;6.77;;;3.30;;
3939;SDS011;1984;48.312;9.244;2023-09-08T03:45:34;5.10;;;4.27;;
3939;SDS011;1984;48.312;9.244;2023-09-08T03:47:59;4.23;;;3.90;;
3939;SDS011;1984;48.312;9.244;2023-09-08T03:50:25;6.20;;;3.77;;
3939;SDS011;1984;48.312;9.244;2023-09-08T03:52:51;4.50;;;4.10;;
3939;SDS011;1984;48.312;9.244;2023-09-08T03:55:16;4.87;;;4.37;;
3939;SDS011;1984;48.312;9.244;2023-09-08T03:57:42;4.60;;;4.10;;
3939;SDS011;1984;48.312;9.244;2023-09-08T04:00:08;7.23;;;4.50;;
3939;SDS011;1984;48.312;9.244;2023-09-08T04:02:35;4.30;;;3.90;;
3939;SDS011;1984;48.312;9.244;2023-09-08T04:05:01;3.67;;;3.37;;
3939;SDS011;1984;48.312;9.244;2023-09-08T04:07:27;7.30;;;4.37;;
3939;SDS011;1984;48.312;9.244;2023-09-08T04:09:53;4.00;;;3.70;;
3939;SDS011;1984;48.312;9.244;2023-09-08T04:12:18;6.03;;;4.00;;
3939;SDS011;1984;48.312;9.244;2023-09-08T04:14:44;5.00;;;4.27;;
3939;SDS011;1984;48.312;9.244;2023-09-08T04:17:09;4.20;;;3.60;;
3939;SDS011;1984;48.312;9.244;2023-09-08T04:19:35;4.77;;;3.93;;
3939;SDS011;1984;48.312;9.244;2023-09-08T04:22:00;7.70;;;4.30;;
3939;SDS011;1984;48.312;9.244;2023-09-08T04:24:26;3.97;;;3.57;;
3939;SDS011;1984;48.312;9.244;2023-09-08T04:26:51;6.03;;;4.40;;
3939;SDS011;1984;48.312;9.244;2023-09-08T04:29:17;4.57;;;3.93;;
3939;SDS011;1984;48.312;9.244;2023-09-08T04:31:43;6.10;;;4.10;;
3939;SDS011;1984;48.312;9.244;2023-09-08T04:34:08;5.37;;;4.30;;
3939;SDS011;1984;48.312;9.244;2023-09-08T04:36:34;8.20;;;4.30;;
3939;SDS011;1984;48.312;9.244;2023-09-08T04:38:59;8.20;;;4.23;;
3939;SDS011;1984;48.312;9.244;2023-09-08T04:41:25;6.30;;;4.97;;
3939;SDS011;1984;48.312;9.244;2023-09-08T04:43:50;5.23;;;4.57;;
3939;SDS011;1984;48.312;9.244;2023-09-08T04:46:16;5.57;;;4.47;;
3939;SDS011;1984;48.312;9.244;2023-09-08T04:48:41;5.60;;;3.77;;
3939;SDS011;1984;48.312;9.244;2023-09-08T04:51:07;4.40;;;4.00;;
3939;SDS011;1984;48.312;9.244;2023-09-08T04:53:32;4.10;;;3.70;;
3939;SDS011;1984;48.312;9.244;2023-09-08T04:55:58;4.30;;;3.90;;
3939;SDS011;1984;48.312;9.244;2023-09-08T04:58:24;5.03;;;3.90;;
3939;SDS011;1984;48.312;9.244;2023-09-08T05:00:50;10.97;;;3.97;;
3939;SDS011;1984;48.312;9.244;2023-09-08T05:03:16;4.70;;;4.20;;
3939;SDS011;1984;48.312;9.244;2023-09-08T05:05:41;6.80;;;3.93;;
3939;SDS011;1984;48.312;9.244;2023-09-08T05:08:07;4.47;;;4.07;;
3939;SDS011;1984;48.312;9.244;2023-09-08T05:10:32;5.73;;;4.30;;
3939;SDS011;1984;48.312;9.244;2023-09-08T05:12:58;5.03;;;4.20;;
3939;SDS011;1984;48.312;9.244;2023-09-08T05:15:23;4.93;;;3.60;;
3939;SDS011;1984;48.312;9.244;2023-09-08T05:17:50;4.47;;;4.07;;
3939;SDS011;1984;48.312;9.244;2023-09-08T05:20:15;4.00;;;3.60;;
3939;SDS011;1984;48.312;9.244;2023-09-08T05:22:41;4.00;;;3.40;;
3939;SDS011;1984;48.312;9.244;2023-09-08T05:25:07;3.60;;;3.30;;
3939;SDS011;1984;48.312;9.244;2023-09-08T05:27:33;3.43;;;3.17;;
3939;SDS011;1984;48.312;9.244;2023-09-08T05:29:58;4.30;;;3.87;;
3939;SDS011;1984;48.312;9.244;2023-09-08T05:32:24;4.43;;;3.87;;
3939;SDS011;1984;48.312;9.244;2023-09-08T05:34:49;8.90;;;5.03;;
3939;SDS011;1984;48.312;9.244;2023-09-08T05:37:15;5.67;;;3.73;;
3939;SDS011;1984;48.312;9.244;2023-09-08T05:39:41;4.07;;;3.67;;
3939;SDS011;1984;48.312;9.244;2023-09-08T05:42:06;4.17;;;3.73;;
3939;SDS011;1984;48.312;9.244;2023-09-08T05:44:32;4.97;;;4.47;;
3939;SDS011;1984;48.312;9.244;2023-09-08T05:46:57;7.63;;;4.13;;
3939;SDS011;1984;48.312;9.244;2023-09-08T05:49:23;4.90;;;4.03;;
3939;SDS011;1984;48.312;9.244;2023-09-08T05:51:48;9.27;;;4.80;;
3939;SDS011;1984;48.312;9.244;2023-09-08T05:54:14;4.40;;;3.93;;
3939;SDS011;1984;48.312;9.244;2023-09-08T05:56:40;4.50;;;4.03;;
3939;SDS011;1984;48.312;9.244;2023-09-08T05:59:05;4.17;;;3.77;;
3939;SDS011;1984;48.312;9.244;2023-09-08T06:01:31;5.00;;;4.30;;
3939;SDS011;1984;48.312;9.244;2023-09-08T06:03:57;5.50;;;4.97;;
3939;SDS011;1984;48.312;9.244;2023-09-08T06:06:23;6.00;;;5.17;;
3939;SDS011;1984;48.312;9.244;2023-09-08T06:08:50;6.10;;;5.50;;
3939;SDS011;1984;48.312;9.244;2023-09-08T06:11:15;7.40;;;5.40;;
3939;SDS011;1984;48.312;9.244;2023-09-08T06:13:41;6.93;;;4.50;;
3939;SDS011;1984;48.312;9.244;2023-09-08T06:16:07;7.97;;;5.30;;
3939;SDS011;1984;48.312;9.244;2023-09-08T06:18:33;5.40;;;4.90;;
3939;SDS011;1984;48.312;9.244;2023-09-08T06:21:05;6.93;;;5.20;;
3939;SDS011;1984;48.312;9.244;2023-09-08T06:23:34;6.00;;;4.33;;
3939;SDS011;1984;48.312;9.244;2023-09-08T06:26:00;8.20;;;5.30;;
3939;SDS011;1984;48.312;9.244;2023-09-08T06:28:26;7.07;;;5.13;;
3939;SDS011;1984;48.312;9.244;2023-09-08T06:30:53;8.30;;;7.33;;
3939;SDS011;1984;48.312;9.244;2023-09-08T06:33:18;9.30;;;6.70;;
3939;SDS011;1984;48.312;9.244;2023-09-08T06:35:45;8.80;;;6.93;;
3939;SDS011;1984;48.312;9.244;2023-09-08T06:38:11;11.07;;;6.80;;
3939;SDS011;1984;48.312;9.244;2023-09-08T06:40:36;6.57;;;5.87;;
3939;SDS011;1984;48.312;9.244;2023-09-08T06:43:02;10.53;;;6.10;;
3939;SDS011;1984;48.312;9.244;2023-09-08T06:45:27;11.70;;;6.17;;
3939;SDS011;1984;48.312;9.244;2023-09-08T06:47:53;7.23;;;5.70;;
3939;SDS011;1984;48.312;9.244;2023-09-08T06:50:20;9.07;;;5.27;;
3939;SDS011;1984;48.312;9.244;2023-09-08T06:52:46;9.90;;;4.93;;
3939;SDS011;1984;48.312;9.244;2023-09-08T06:55:14;6.53;;;5.40;;
3939;SDS011;1984;48.312;9.244;2023-09-08T06:57:41;10.17;;;5.63;;
3939;SDS011;1984;48.312;9.244;2023-09-08T07:00:07;6.80;;;5.67;;
3939;SDS011;1984;48.312;9.244;2023-09-08T07:02:33;7.80;;;6.07;;
3939;SDS011;1984;48.312;9.244;2023-09-08T07:04:59;6.53;;;5.77;;
3939;SDS011;1984;48.312;9.244;2023-09-08T07:07:25;6.50;;;5.70;;
3939;SDS011;1984;48.312;9.244;2023-09-08T07:09:51;6.73;;;5.80;;
3939;SDS011;1984;48.312;9.244;2023-09-08T07:12:16;5.33;;;4.83;;
3939;SDS011;1984;48.312;9.244;2023-09-08T07:14:42;7.33;;;5.63;;
3939;SDS011;1984;48.312;9.244;2023-09-08T07:17:07;7.70;;;6.00;;
3939;SDS011;1984;48.312;9.244;2023-09-08T07:19:33;7.17;;;5.20;;
3939;SDS011;1984;48.312;9.244;2023-09-08T07:21:58;6.43;;;5.67;;
3939;SDS011;1984;48.312;9.244;2023-09-08T07:24:24;8.30;;;5.30;;
3939;SDS011;1984;48.312;9.244;2023-09-08T07:26:50;8.40;;;5.50;;
3939;SDS011;1984;48.312;9.244;2023-09-08T07:29:16;9.13;;;5.40;;
3939;SDS011;1984;48.312;9.244;2023-09-08T07:31:41;17.77;;;5.47;;
3939;SDS011;1984;48.312;9.244;2023-09-08T07:34:07;6.27;;;4.93;;
3939;SDS011;1984;48.312;9.244;2023-09-08T07:36:32;6.33;;;4.90;;
3939;SDS011;1984;48.312;9.244;2023-09-08T07:38:58;7.40;;;5.47;;
3939;SDS011;1984;48.312;9.244;2023-09-08T07:41:24;5.30;;;4.80;;
3939;SDS011;1984;48.312;9.244;2023-09-08T07:43:50;5.50;;;5.00;;
3939;SDS011;1984;48.312;9.244;2023-09-08T07:46:15;5.43;;;4.80;;
3939;SDS011;1984;48.312;9.244;2023-09-08T07:48:41;8.67;;;5.17;;
3939;SDS011;1984;48.312;9.244;2023-09-08T07:51:06;6.83;;;4.93;;
3939;SDS011;1984;48.312;9.244;2023-09-08T07:53:32;7.30;;;4.25;;
3939;SDS011;1984;48.312;9.244;2023-09-08T07:55:58;5.10;;;4.60;;
3939;SDS011;1984;48.312;9.244;2023-09-08T07:58:23;5.03;;;4.53;;
3939;SDS011;1984;48.312;9.244;2023-09-08T08:00:49;5.72;;;4.40;;
3939;SDS011;1984;48.312;9.244;2023-09-08T08:03:15;5.63;;;4.20;;
3939;SDS011;1984;48.312;9.244;2023-09-08T08:05:40;6.35;;;4.45;;
3939;SDS011;1984;48.312;9.244;2023-09-08T08:08:06;6.35;;;4.28;;
3939;SDS011;1984;48.312;9.244;2023-09-08T08:10:32;5.85;;;4.30;;
3939;SDS011;1984;48.312;9.244;2023-09-08T08:12:58;6.72;;;3.78;;
3939;SDS011;1984;48.312;9.244;2023-09-08T08:15:34;3.78;;;3.42;;
3939;SDS011;1984;48.312;9.244;2023-09-08T08:18:00;18.40;;;4.28;;
3939;SDS011;1984;48.312;9.244;2023-09-08T08:20:26;4.43;;;4.03;;
3939;SDS011;1984;48.312;9.244;2023-09-08T08:22:51;5.15;;;4.13;;
3939;SDS011;1984;48.312;9.244;2023-09-08T08:25:17;3.90;;;3.55;;
3939;SDS011;1984;48.312;9.244;2023-09-08T08:27:42;7.75;;;4.28;;
3939;SDS011;1984;48.312;9.244;2023-09-08T08:30:09;5.88;;;3.50;;
3939;SDS011;1984;48.312;9.244;2023-09-08T08:32:36;4.68;;;4.05;;
3939;SDS011;1984;48.312;9.244;2023-09-08T08:35:01;6.93;;;3.67;;
3939;SDS011;1984;48.312;9.244;2023-09-08T08:37:29;3.63;;;3.33;;
3939;SDS011;1984;48.312;9.244;2023-09-08T08:39:55;6.95;;;3.40;;
3939;SDS011;1984;48.312;9.244;2023-09-08T08:42:20;4.45;;;3.95;;
3939;SDS011;1984;48.312;9.244;2023-09-08T08:44:47;4.20;;;3.80;;
3939;SDS011;1984;48.312;9.244;2023-09-08T08:47:14;3.80;;;3.25;;
3939;SDS011;1984;48.312;9.244;2023-09-08T08:49:42;4.13;;;3.75;;
3939;SDS011;1984;48.312;9.244;2023-09-08T08:52:11;3.90;;;3.30;;
3939;SDS011;1984;48.312;9.244;2023-09-08T08:54:38;4.70;;;3.65;;
3939;SDS011;1984;48.312;9.244;2023-09-08T08:57:04;5.88;;;4.00;;
3939;SDS011;1984;48.312;9.244;2023-09-08T08:59:31;5.93;;;4.18;;
3939;SDS011;1984;48.312;9.244;2023-09-08T09:01:58;7.72;;;4.15;;
3939;SDS011;1984;48.312;9.244;2023-09-08T09:04:24;4.28;;;3.65;;
3939;SDS011;1984;48.312;9.244;2023-09-08T09:06:52;4.20;;;3.80;;
3939;SDS011;1984;48.312;9.244;2023-09-08T09:09:19;11.60;;;5.30;;
3939;SDS011;1984;48.312;9.244;2023-09-08T09:11:45;5.95;;;3.40;;
3939;SDS011;1984;48.312;9.244;2023-09-08T09:14:11;4.28;;;3.83;;
3939;SDS011;1984;48.312;9.244;2023-09-08T09:16:43;3.70;;;3.22;;
3939;SDS011;1984;48.312;9.244;2023-09-08T09:19:09;8.70;;;3.75;;
3939;SDS011;1984;48.312;9.244;2023-09-08T09:21:45;4.97;;;4.07;;
3939;SDS011;1984;48.312;9.244;2023-09-08T09:24:16;3.72;;;3.33;;
3939;SDS011;1984;48.312;9.244;2023-09-08T09:26:52;9.80;;;4.38;;
3939;SDS011;1984;48.312;9.244;2023-09-08T09:29:18;3.38;;;3.08;;
3939;SDS011;1984;48.312;9.244;2023-09-08T09:31:51;3.13;;;2.80;;
3939;SDS011;1984;48.312;9.244;2023-09-08T09:34:18;3.70;;;3.35;;
3939;SDS011;1984;48.312;9.244;2023-09-08T09:36:43;3.45;;;3.17;;
3939;SDS011;1984;48.312;9.244;2023-09-08T09:39:10;3.42;;;3.13;;
3939;SDS011;1984;48.312;9.244;2023-09-08T09:41:37;4.03;;;3.75;;
3939;SDS011;1984;48.312;9.244;2023-09-08T09:44:02;3.83;;;3.63;;
3939;SDS011;1984;48.312;9.244;2023-09-08T09:46:28;6.32;;;3.60;;
3939;SDS011;1984;48.312;9.244;2023-09-08T09:48:54;3.70;;;3.40;;
3939;SDS011;1984;48.312;9.244;2023-09-08T09:51:21;3.95;;;3.42;;
3939;SDS011;1984;48.312;9.244;2023-09-08T09:53:49;6.35;;;3.45;;
3939;SDS011;1984;48.312;9.244;2023-09-08T09:56:16;3.80;;;3.50;;
3939;SDS011;1984;48.312;9.244;2023-09-08T09:58:43;3.55;;;3.35;;
3939;SDS011;1984;48.312;9.244;2023-09-08T10:01:10;8.40;;;3.90;;
3939;SDS011;1984;48.312;9.244;2023-09-08T10:03:36;8.88;;;3.65;;
3939;SDS011;1984;48.312;9.244;2023-09-08T10:06:04;5.00;;;3.00;;
3939;SDS011;1984;48.312;9.244;2023-09-08T10:08:30;3.50;;;3.25;;
3939;SDS011;1984;48.312;9.244;2023-09-08T10:10:59;3.33;;;3.10;;
3939;SDS011;1984;48.312;9.244;2023-09-08T10:13:30;4.32;;;3.03;;
3939;SDS011;1984;48.312;9.244;2023-09-08T10:15:58;6.28;;;3.50;;
3939;SDS011;1984;48.312;9.244;2023-09-08T10:18:27;3.33;;;3.00;;
3939;SDS011;1984;48.312;9.244;2023-09-08T10:20:55;3.47;;;3.17;;
3939;SDS011;1984;48.312;9.244;2023-09-08T10:23:33;4.88;;;4.10;;
3939;SDS011;1984;48.312;9.244;2023-09-08T10:26:02;3.55;;;3.25;;
3939;SDS011;1984;48.312;9.244;2023-09-08T10:28:31;5.80;;;3.45;;
3939;SDS011;1984;48.312;9.244;2023-09-08T10:30:58;3.22;;;3.03;;
3939;SDS011;1984;48.312;9.244;2023-09-08T10:33:24;3.53;;;3.00;;
3939;SDS011;1984;48.312;9.244;2023-09-08T10:35:51;9.88;;;3.28;;
3939;SDS011;1984;48.312;9.244;2023-09-08T10:38:21;3.28;;;3.08;;
3939;SDS011;1984;48.312;9.244;2023-09-08T10:43:42;3.42;;;3.13;;
3939;SDS011;1984;48.312;9.244;2023-09-08T10:46:22;3.42;;;3.13;;
3939;SDS011;1984;48.312;9.244;2023-09-08T10:48:52;7.18;;;3.30;;
3939;SDS011;1984;48.312;9.244;2023-09-08T10:51:19;3.53;;;3.28;;
3939;SDS011;1984;48.312;9.244;2023-09-08T10:53:47;11.52;;;3.53;;
3939;SDS011;1984;48.312;9.244;2023-09-08T10:56:14;4.90;;;3.78;;
3939;SDS011;1984;48.312;9.244;2023-09-08T10:58:40;6.38;;;3.92;;
3939;SDS011;1984;48.312;9.244;2023-09-08T11:01:08;4.30;;;4.00;;
3939;SDS011;1984;48.312;9.244;2023-09-08T11:06:09;4.22;;;3.83;;
3939;SDS011;1984;48.312;9.244;2023-09-08T11:08:37;5.45;;;4.30;;
3939;SDS011;1984;48.312;9.244;2023-09-08T11:11:03;3.88;;;3.58;;
3939;SDS011;1984;48.312;9.244;2023-09-08T11:13:29;4.70;;;4.20;;
3939;SDS011;1984;48.312;9.244;2023-09-08T11:15:55;6.10;;;3.85;;
3939;SDS011;1984;48.312;9.244;2023-09-08T11:18:27;4.15;;;3.85;;
3939;SDS011;1984;48.312;9.244;2023-09-08T11:20:53;4.97;;;4.00;;
3939;SDS011;1984;48.312;9.244;2023-09-08T11:23:20;4.20;;;3.90;;
3939;SDS011;1984;48.312;9.244;2023-09-08T11:25:46;9.55;;;4.05;;
3939;SDS011;1984;48.312;9.244;2023-09-08T11:28:12;6.38;;;4.22;;
3939;SDS011;1984;48.312;9.244;2023-09-08T11:30:38;4.60;;;4.20;;
3939;SDS011;1984;48.312;9.244;2023-09-08T11:33:05;6.10;;;4.60;;
3939;SDS011;1984;48.312;9.244;2023-09-08T11:35:50;4.20;;;3.90;;
3939;SDS011;1984;48.312;9.244;2023-09-08T11:38:25;3.80;;;3.50;;
3939;SDS011;1984;48.312;9.244;2023-09-08T11:40:56;7.07;;;4.07;;
3939;SDS011;1984;48.312;9.244;2023-09-08T11:43:23;10.43;;;5.35;;
3939;SDS011;1984;48.312;9.244;2023-09-08T11:45:48;10.18;;;3.97;;
3939;SDS011;1984;48.312;9.244;2023-09-08T11:48:15;7.78;;;4.10;;
3939;SDS011;1984;48.312;9.244;2023-09-08T11:50:43;4.72;;;4.15;;
3939;SDS011;1984;48.312;9.244;2023-09-08T11:53:09;6.38;;;4.55;;
3939;SDS011;1984;48.312;9.244;2023-09-08T11:55:35;5.10;;;4.70;;
3939;SDS011;1984;48.312;9.244;2023-09-08T11:58:04;5.07;;;4.50;;
3939;SDS011;1984;48.312;9.244;2023-09-08T12:00:30;4.68;;;4.28;;
3939;SDS011;1984;48.312;9.244;2023-09-08T12:03:08;10.23;;;4.60;;
3939;SDS011;1984;48.312;9.244;2023-09-08T12:05:38;4.90;;;4.50;;
3939;SDS011;1984;48.312;9.244;2023-09-08T12:08:04;8.80;;;5.20;;
3939;SDS011;1984;48.312;9.244;2023-09-08T12:10:30;6.43;;;4.57;;
3939;SDS011;1984;48.312;9.244;2023-09-08T12:13:03;5.37;;;4.83;;
3939;SDS011;1984;48.312;9.244;2023-09-08T12:15:39;5.20;;;4.70;;
3939;SDS011;1984;48.312;9.244;2023-09-08T12:18:09;5.63;;;4.77;;
3939;SDS011;1984;48.312;9.244;2023-09-08T12:20:36;5.80;;;5.20;;
3939;SDS011;1984;48.312;9.244;2023-09-08T12:23:03;4.97;;;4.47;;
3939;SDS011;1984;48.312;9.244;2023-09-08T12:25:32;6.53;;;5.37;;
3939;SDS011;1984;48.312;9.244;2023-09-08T12:27:59;5.33;;;4.83;;
3939;SDS011;1984;48.312;9.244;2023-09-08T12:30:25;5.30;;;4.80;;
3939;SDS011;1984;48.312;9.244;2023-09-08T12:33:01;5.80;;;4.63;;
3939;SDS011;1984;48.312;9.244;2023-09-08T12:35:27;5.07;;;4.57;;
3939;SDS011;1984;48.312;9.244;2023-09-08T12:37:57;9.53;;;4.77;;
3939;SDS011;1984;48.312;9.244;2023-09-08T12:40:27;6.33;;;4.63;;
3939;SDS011;1984;48.312;9.244;2023-09-08T12:42:53;8.33;;;4.60;;
3939;SDS011;1984;48.312;9.244;2023-09-08T12:45:20;4.33;;;4.00;;
3939;SDS011;1984;48.312;9.244;2023-09-08T12:47:47;4.93;;;4.53;;
3939;SDS011;1984;48.312;9.244;2023-09-08T12:50:13;8.67;;;5.07;;
3939;SDS011;1984;48.312;9.244;2023-09-08T12:52:39;5.30;;;4.30;;
3939;SDS011;1984;48.312;9.244;2023-09-08T12:55:05;5.97;;;4.83;;
3939;SDS011;1984;48.312;9.244;2023-09-08T12:57:31;6.73;;;4.73;;
3939;SDS011;1984;48.312;9.244;2023-09-08T12:59:56;5.20;;;4.70;;
3939;SDS011;1984;48.312;9.244;2023-09-08T13:02:22;5.10;;;4.70;;
3939;SDS011;1984;48.312;9.244;2023-09-08T13:04:48;5.80;;;5.30;;
3939;SDS011;1984;48.312;9.244;2023-09-08T13:07:17;5.03;;;4.20;;
3939;SDS011;1984;48.312;9.244;2023-09-08T13:09:43;8.37;;;5.30;;
3939;SDS011;1984;48.312;9.244;2023-09-08T13:12:09;5.87;;;5.00;;
3939;SDS011;1984;48.312;9.244;2023-09-08T13:14:36;4.87;;;4.47;;
3939;SDS011;1984;48.312;9.244;2023-09-08T13:17:02;5.27;;;4.77;;
3939;SDS011;1984;48.312;9.244;2023-09-08T13:19:28;6.73;;;4.83;;
3939;SDS011;1984;48.312;9.244;2023-09-08T13:21:54;7.53;;;5.07;;
3939;SDS011;1984;48.312;9.244;2023-09-08T13:24:19;5.10;;;4.60;;
3939;SDS011;1984;48.312;9.244;2023-09-08T13:26:47;5.37;;;4.87;;
3939;SDS011;1984;48.312;9.244;2023-09-08T13:29:12;12.53;;;4.37;;
3939;SDS011;1984;48.312;9.244;2023-09-08T13:31:38;4.90;;;4.33;;
3939;SDS011;1984;48.312;9.244;2023-09-08T13:34:03;5.07;;;4.60;;
3939;SDS011;1984;48.312;9.244;2023-09-08T13:36:30;4.87;;;4.40;;
3939;SDS011;1984;48.312;9.244;2023-09-08T13:38:55;5.63;;;4.67;;
3939;SDS011;1984;48.312;9.244;2023-09-08T13:41:21;7.60;;;5.50;;
3939;SDS011;1984;48.312;9.244;2023-09-08T13:43:46;4.40;;;4.10;;
3939;SDS011;1984;48.312;9.244;2023-09-08T13:46:12;6.37;;;5.00;;
3939;SDS011;1984;48.312;9.244;2023-09-08T13:48:37;5.30;;;4.80;;
3939;SDS011;1984;48.312;9.244;2023-09-08T13:51:03;5.23;;;4.73;;
3939;SDS011;1984;48.312;9.244;2023-09-08T13:53:29;7.53;;;3.87;;
3939;SDS011;1984;48.312;9.244;2023-09-08T13:55:58;13.60;;;4.60;;
3939;SDS011;1984;48.312;9.244;2023-09-08T13:58:24;5.00;;;4.50;;
3939;SDS011;1984;48.312;9.244;2023-09-08T14:00:49;6.20;;;4.70;;
3939;SDS011;1984;48.312;9.244;2023-09-08T14:03:16;8.90;;;5.20;;
3939;SDS011;1984;48.312;9.244;2023-09-08T14:05:43;8.53;;;4.93;;
3939;SDS011;1984;48.312;9.244;2023-09-08T14:08:08;13.77;;;5.03;;
3939;SDS011;1984;48.312;9.244;2023-09-08T14:10:34;12.30;;;5.47;;
3939;SDS011;1984;48.312;9.244;2023-09-08T14:13:00;8.30;;;5.43;;
3939;SDS011;1984;48.312;9.244;2023-09-08T14:15:26;6.60;;;5.07;;
3939;SDS011;1984;48.312;9.244;2023-09-08T14:17:51;12.00;;;5.27;;
3939;SDS011;1984;48.312;9.244;2023-09-08T14:20:18;6.87;;;4.70;;
3939;SDS011;1984;48.312;9.244;2023-09-08T14:22:43;7.33;;;4.90;;
3939;SDS011;1984;48.312;9.244;2023-09-08T14:25:09;7.23;;;4.90;;
3939;SDS011;1984;48.312;9.244;2023-09-08T14:27:35;5.10;;;4.60;;
3939;SDS011;1984;48.312;9.244;2023-09-08T14:30:02;5.50;;;5.00;;
3939;SDS011;1984;48.312;9.244;2023-09-08T14:32:28;9.70;;;5.57;;
3939;SDS011;1984;48.312;9.244;2023-09-08T14:34:54;7.63;;;4.60;;
3939;SDS011;1984;48.312;9.244;2023-09-08T14:37:21;5.80;;;4.73;;
3939;SDS011;1984;48.312;9.244;2023-09-08T14:39:46;7.77;;;4.57;;
3939;SDS011;1984;48.312;9.244;2023-09-08T14:42:12;6.37;;;4.63;;
3939;SDS011;1984;48.312;9.244;2023-09-08T14:44:39;5.30;;;4.80;;
3939;SDS011;1984;48.312;9.244;2023-09-08T14:47:04;4.73;;;4.33;;
3939;SDS011;1984;48.312;9.244;2023-09-08T14:49:30;6.30;;;4.67;;
3939;SDS011;1984;48.312;9.244;2023-09-08T14:51:55;5.30;;;4.80;;
3939;SDS011;1984;48.312;9.244;2023-09-08T14:54:21;6.10;;;4.50;;
3939;SDS011;1984;48.312;9.244;2023-09-08T14:56:46;6.87;;;5.60;;
3939;SDS011;1984;48.312;9.244;2023-09-08T14:59:12;5.83;;;5.23;;
3939;SDS011;1984;48.312;9.244;2023-09-08T15:01:37;8.80;;;4.90;;
3939;SDS011;1984;48.312;9.244;2023-09-08T15:04:05;4.70;;;4.30;;
3939;SDS011;1984;48.312;9.244;2023-09-08T15:06:31;5.07;;;4.67;;
3939;SDS011;1984;48.312;9.244;2023-09-08T15:08:56;4.80;;;4.30;;
3939;SDS011;1984;48.312;9.244;2023-09-08T15:11:22;4.60;;;4.20;;
3939;SDS011;1984;48.312;9.244;2023-09-08T15:13:47;13.33;;;4.80;;
3939;SDS011;1984;48.312;9.244;2023-09-08T15:16:13;5.27;;;4.77;;
3939;SDS011;1984;48.312;9.244;2023-09-08T15:18:39;10.20;;;4.70;;